Twin Rock, Colorado
Current Conditions -  °F | °C
As of 7:56 AM on Friday 31 Oct 2014 (Local Time) from KCWN Reporting Station
Clear Clear  
Wind Chill: 23°   Ceiling: Unl
Heat Index: 32°   Visibility: 10mi
Dew Point: 25°   Wind: 12mph
Humidity: 75%   Direction: 140°SE
Pressure: 30.36"   Gusts: NA
Location:  38.8466°N, 105.301°W
Report Text: KCWN 311356Z AUTO 14010KT 10SM CLR 00/M04 A3036 RMK AO2 SLP278 T00011039
Loading
Personal Weather Stations






























Interactive Weather Map
Tropical Storm Tracking
New forecast layout! Learn more

10-Day Weather Forecast

Advertisements
Track Severe Weather on mobile